createdAt,value
2018-09-01T00:01:16.397Z,14.60
2018-09-01T00:04:40.752Z,14.57
2018-09-01T00:08:05.176Z,14.56
2018-09-01T00:11:29.697Z,14.39
2018-09-01T00:14:54.075Z,14.37
2018-09-01T00:18:18.492Z,14.40
2018-09-01T00:21:42.932Z,14.42
2018-09-01T00:25:07.596Z,14.40
2018-09-01T00:28:31.973Z,14.36
2018-09-01T00:31:56.398Z,14.31
2018-09-01T00:35:20.781Z,14.18
2018-09-01T00:39:16.913Z,14.18
2018-09-01T00:42:41.318Z,14.18
2018-09-01T00:46:05.991Z,14.17
2018-09-01T00:49:30.461Z,14.13
2018-09-01T00:52:54.854Z,14.12
2018-09-01T00:56:19.308Z,14.12
2018-09-01T00:59:43.734Z,14.02
2018-09-01T01:03:08.148Z,14.11
2018-09-01T01:06:32.556Z,14.05
2018-09-01T01:09:56.953Z,13.99
2018-09-01T01:13:21.414Z,13.92
2018-09-01T01:16:45.952Z,13.94
2018-09-01T01:20:10.425Z,13.77
2018-09-01T01:23:34.800Z,13.75
2018-09-01T01:26:59.207Z,13.76
2018-09-01T01:30:23.609Z,13.67
2018-09-01T01:33:48.030Z,13.64
2018-09-01T01:37:12.430Z,13.58
2018-09-01T01:40:36.830Z,13.51
2018-09-01T01:44:01.229Z,13.44
2018-09-01T01:47:25.663Z,13.51
2018-09-01T01:50:50.056Z,13.44
2018-09-01T01:54:14.459Z,13.36
2018-09-01T01:57:44.140Z,13.43
2018-09-01T02:01:08.555Z,13.46
2018-09-01T02:04:32.969Z,13.42
2018-09-01T02:07:57.349Z,13.42
2018-09-01T02:11:21.764Z,13.38
2018-09-01T02:14:46.194Z,13.31
2018-09-01T02:18:10.712Z,13.26
2018-09-01T02:21:35.099Z,13.31
2018-09-01T02:24:59.491Z,13.31
2018-09-01T02:28:23.868Z,13.26
2018-09-01T02:31:48.280Z,13.19
2018-09-01T02:35:12.711Z,13.17
2018-09-01T02:38:37.108Z,13.12
2018-09-01T02:42:01.511Z,13.16
2018-09-01T02:45:25.898Z,13.17
2018-09-01T02:48:50.289Z,13.05
2018-09-01T02:52:14.829Z,13.04
2018-09-01T02:55:39.241Z,13.06
2018-09-01T02:59:04.055Z,12.95
2018-09-01T03:02:33.671Z,12.95
2018-09-01T03:05:58.053Z,12.87
2018-09-01T03:09:23.000Z,12.81
2018-09-01T03:12:47.399Z,12.82
2018-09-01T03:16:11.843Z,12.87
2018-09-01T03:19:36.268Z,12.86
2018-09-01T03:23:00.668Z,12.77
2018-09-01T03:26:25.053Z,12.81
2018-09-01T03:29:49.438Z,12.74
2018-09-01T03:33:13.844Z,12.71
2018-09-01T03:36:38.240Z,12.74
2018-09-01T03:40:02.726Z,12.73
2018-09-01T03:43:27.280Z,12.66
2018-09-01T03:46:51.659Z,12.66
2018-09-01T03:50:16.045Z,12.69
2018-09-01T03:53:40.466Z,12.67
2018-09-01T03:57:04.860Z,12.58
2018-09-01T04:00:29.290Z,12.59
2018-09-01T04:03:53.719Z,12.53
2018-09-01T04:07:18.095Z,12.50
2018-09-01T04:10:42.536Z,12.55
2018-09-01T04:14:06.955Z,12.48
2018-09-01T04:17:31.437Z,12.51
2018-09-01T04:20:55.893Z,12.46
2018-09-01T04:24:20.338Z,12.47
2018-09-01T04:27:44.692Z,12.45
2018-09-01T04:31:09.060Z,12.48
2018-09-01T04:34:33.491Z,12.41
2018-09-01T04:37:57.940Z,12.39
2018-09-01T04:41:22.365Z,12.45
2018-09-01T04:44:46.710Z,12.41
2018-09-01T04:48:11.725Z,12.39
2018-09-01T04:51:36.231Z,12.35
2018-09-01T04:55:00.658Z,12.32
2018-09-01T04:58:25.050Z,12.39
2018-09-01T05:01:49.484Z,12.32
2018-09-01T05:05:13.871Z,12.40
2018-09-01T05:08:38.263Z,12.36
2018-09-01T05:12:02.634Z,12.39
2018-09-01T05:15:27.041Z,12.45
2018-09-01T05:18:51.692Z,12.41
2018-09-01T05:22:16.250Z,12.49
2018-09-01T05:25:40.842Z,12.52
2018-09-01T05:29:05.571Z,12.55
2018-09-01T05:32:30.048Z,12.64
2018-09-01T05:35:54.464Z,12.70
2018-09-01T05:39:18.867Z,12.83
2018-09-01T05:42:43.588Z,12.92
2018-09-01T05:46:08.261Z,13.01
2018-09-01T05:49:32.634Z,13.07
2018-09-01T05:52:57.144Z,13.05
2018-09-01T05:56:21.615Z,13.12
2018-09-01T05:59:46.061Z,13.20
2018-09-01T06:03:10.517Z,13.25
2018-09-01T06:06:34.992Z,13.41
2018-09-01T06:09:59.554Z,13.58
2018-09-01T06:13:24.158Z,13.62
2018-09-01T06:16:48.900Z,13.82
2018-09-01T06:20:14.613Z,13.88
2018-09-01T06:23:39.156Z,14.05
2018-09-01T06:27:08.605Z,14.17
2018-09-01T06:30:35.553Z,14.41
2018-09-01T06:34:06.533Z,14.45
2018-09-01T06:37:31.082Z,14.59
2018-09-01T06:40:55.529Z,14.70
2018-09-01T06:44:20.116Z,14.85
2018-09-01T06:48:47.933Z,15.00
2018-09-01T07:00:03.565Z,15.42
2018-09-01T07:03:28.084Z,15.57
2018-09-01T07:06:52.671Z,15.68
2018-09-01T07:10:17.175Z,15.85
2018-09-01T07:13:41.771Z,16.01
2018-09-01T07:17:06.618Z,16.10
2018-09-01T07:20:30.964Z,16.21
2018-09-01T07:23:55.391Z,16.34
2018-09-01T07:27:19.811Z,16.46
2018-09-01T07:30:44.338Z,16.59
2018-09-01T07:34:08.686Z,16.72
2018-09-01T07:37:33.137Z,16.80
2018-09-01T07:40:57.527Z,16.83
2018-09-01T07:44:21.951Z,16.99
2018-09-01T07:47:46.336Z,17.13
2018-09-01T07:51:10.880Z,17.33
2018-09-01T07:54:35.669Z,17.45
2018-09-01T07:58:00.034Z,17.59
2018-09-01T08:01:24.432Z,17.68
2018-09-01T08:04:49.231Z,17.71
2018-09-01T08:08:13.635Z,17.84
2018-09-01T08:11:38.389Z,17.99
2018-09-01T08:15:02.947Z,18.18
2018-09-01T08:18:27.527Z,18.07
2018-09-01T08:21:52.001Z,18.18
2018-09-01T08:25:16.615Z,18.34
2018-09-01T08:28:41.090Z,18.61
2018-09-01T08:32:05.497Z,18.66
2018-09-01T08:35:29.949Z,18.84
2018-09-01T08:38:54.380Z,18.92
2018-09-01T08:42:18.878Z,19.11
2018-09-01T08:45:43.281Z,19.40
2018-09-01T08:49:07.766Z,19.59
2018-09-01T08:52:32.172Z,19.85
2018-09-01T08:55:56.581Z,19.78
2018-09-01T08:59:21.102Z,19.93
2018-09-01T09:02:45.646Z,19.99
2018-09-01T09:06:10.363Z,20.24
2018-09-01T09:09:34.818Z,20.36
2018-09-01T09:12:59.240Z,20.45
2018-09-01T09:16:23.634Z,20.58
2018-09-01T09:19:48.086Z,20.80
2018-09-01T09:23:12.581Z,20.93
2018-09-01T09:26:37.018Z,21.14
2018-09-01T09:30:01.521Z,21.46
2018-09-01T09:33:26.017Z,21.70
2018-09-01T09:36:50.503Z,22.02
2018-09-01T09:40:14.966Z,22.21
2018-09-01T09:43:39.559Z,22.33
2018-09-01T09:47:04.005Z,22.59
2018-09-01T09:50:28.444Z,22.97
2018-09-01T09:53:52.840Z,23.45
2018-09-01T09:57:17.288Z,23.59
2018-09-01T10:00:46.884Z,24.48
2018-09-01T10:04:12.070Z,24.77
2018-09-01T10:07:36.716Z,25.57
2018-09-01T10:11:01.394Z,25.94
2018-09-01T10:14:25.977Z,26.30
2018-09-01T10:17:50.456Z,26.18
2018-09-01T10:21:14.879Z,28.21
2018-09-01T10:24:39.329Z,29.66
2018-09-01T10:28:03.883Z,31.68
2018-09-01T10:31:28.290Z,34.02
2018-09-01T10:34:52.716Z,31.60
2018-09-01T10:38:17.159Z,28.61
2018-09-01T10:41:41.591Z,29.50
2018-09-01T10:45:06.188Z,29.13
2018-09-01T10:48:30.601Z,31.05
2018-09-01T10:51:55.024Z,31.00
2018-09-01T10:55:19.497Z,28.60
2018-09-01T10:58:43.973Z,27.47
2018-09-01T11:02:08.422Z,26.62
2018-09-01T11:05:32.916Z,26.42
2018-09-01T11:08:57.251Z,25.86
2018-09-01T11:12:22.069Z,25.18
2018-09-01T11:15:46.882Z,25.04
2018-09-01T11:19:11.935Z,25.64
2018-09-01T11:22:36.355Z,25.38
2018-09-01T11:26:00.731Z,25.76
2018-09-01T11:29:25.151Z,25.22
2018-09-01T11:32:49.595Z,25.06
2018-09-01T11:36:13.997Z,25.25
2018-09-01T11:39:38.585Z,25.07
2018-09-01T11:43:03.215Z,25.56
2018-09-01T11:46:27.448Z,26.20
2018-09-01T11:49:51.955Z,26.79
2018-09-01T11:53:16.490Z,26.13
2018-09-01T11:56:40.739Z,27.54
2018-09-01T12:00:05.296Z,26.59
2018-09-01T12:03:29.835Z,26.02
2018-09-01T12:06:54.282Z,25.73
2018-09-01T12:10:18.760Z,25.22
2018-09-01T12:13:43.177Z,26.12
2018-09-01T12:17:07.755Z,26.88
2018-09-01T12:20:32.176Z,26.93
2018-09-01T12:23:56.703Z,26.57
2018-09-01T12:27:21.122Z,26.51
2018-09-01T12:30:45.611Z,26.52
2018-09-01T12:34:10.042Z,27.50
2018-09-01T12:37:34.442Z,27.93
2018-09-01T12:40:58.828Z,27.13
2018-09-01T12:44:23.470Z,27.16
2018-09-01T12:47:47.922Z,26.30
2018-09-01T12:51:12.360Z,26.95
2018-09-01T12:54:36.764Z,28.37
2018-09-01T12:58:01.218Z,29.13
2018-09-01T13:01:25.623Z,28.87
2018-09-01T13:04:50.458Z,28.64
2018-09-01T13:08:14.913Z,28.22
2018-09-01T13:11:39.339Z,28.23
2018-09-01T13:15:03.799Z,29.27
2018-09-01T13:18:28.248Z,30.47
2018-09-01T13:21:52.684Z,31.51
2018-09-01T13:25:17.238Z,31.36
2018-09-01T13:28:41.610Z,30.08
2018-09-01T13:32:06.036Z,28.73
2018-09-01T13:35:30.476Z,27.77
2018-09-01T13:38:55.425Z,27.29
2018-09-01T13:42:19.837Z,26.82
2018-09-01T13:45:44.246Z,27.50
2018-09-01T13:49:08.666Z,30.58
2018-09-01T13:52:33.106Z,35.27
2018-09-01T13:55:57.702Z,37.27
2018-09-01T13:59:22.191Z,38.61
2018-09-01T14:02:46.781Z,38.67
2018-09-01T14:06:11.259Z,35.98
2018-09-01T14:09:35.772Z,34.61
2018-09-01T14:13:00.175Z,32.13
2018-09-01T14:16:24.608Z,30.81
2018-09-01T14:19:49.035Z,29.84
2018-09-01T14:23:13.567Z,34.42
2018-09-01T14:26:38.065Z,37.43
2018-09-01T14:30:02.474Z,39.23
2018-09-01T14:33:26.863Z,39.64
2018-09-01T14:36:51.318Z,36.88
2018-09-01T14:40:15.758Z,35.05
2018-09-01T14:43:40.148Z,34.28
2018-09-01T14:47:04.887Z,36.24
2018-09-01T14:50:29.267Z,36.40
2018-09-01T14:53:53.827Z,33.97
2018-09-01T14:57:18.294Z,35.08
2018-09-01T15:00:42.772Z,37.03
2018-09-01T15:04:07.219Z,37.48
2018-09-01T15:07:31.629Z,38.43
2018-09-01T15:10:56.069Z,39.35
2018-09-01T15:14:20.531Z,39.86
2018-09-01T15:17:47.460Z,40.46
2018-09-01T15:21:12.104Z,41.14
2018-09-01T15:24:36.588Z,41.19
2018-09-01T15:28:01.052Z,38.18
2018-09-01T15:31:25.482Z,34.53
2018-09-01T15:34:49.932Z,32.29
2018-09-01T15:38:14.332Z,31.44
2018-09-01T15:41:38.751Z,33.32
2018-09-01T15:45:03.224Z,32.71
2018-09-01T15:48:27.605Z,32.62
2018-09-01T15:51:52.001Z,33.81
2018-09-01T15:55:16.420Z,35.38
2018-09-01T15:58:40.969Z,36.93
2018-09-01T16:02:05.650Z,38.02
2018-09-01T16:05:30.108Z,38.48
2018-09-01T16:08:54.526Z,38.92
2018-09-01T16:12:18.975Z,39.05
2018-09-01T16:15:43.396Z,35.52
2018-09-01T16:19:07.845Z,33.00
2018-09-01T16:22:32.263Z,30.93
2018-09-01T16:25:56.670Z,29.72
2018-09-01T16:29:21.176Z,28.97
2018-09-01T16:32:45.733Z,27.91
2018-09-01T16:36:10.247Z,27.83
2018-09-01T16:39:34.675Z,28.39
2018-09-01T16:42:59.120Z,28.98
2018-09-01T16:46:23.516Z,29.48
2018-09-01T16:49:48.033Z,29.58
2018-09-01T16:53:12.486Z,28.40
2018-09-01T16:56:36.909Z,27.62
2018-09-01T17:00:01.321Z,27.04
2018-09-01T17:03:26.094Z,26.29
2018-09-01T17:06:50.712Z,25.84
2018-09-01T17:10:15.304Z,25.81
2018-09-01T17:13:39.760Z,25.66
2018-09-01T17:17:04.393Z,25.73
2018-09-01T17:20:28.804Z,25.57
2018-09-01T17:23:53.347Z,25.68
2018-09-01T17:27:18.001Z,25.50
2018-09-01T17:30:42.470Z,25.30
2018-09-01T17:34:07.021Z,25.07
2018-09-01T17:37:31.603Z,24.66
2018-09-01T17:40:56.192Z,24.06
2018-09-01T17:44:20.704Z,24.09
2018-09-01T17:47:45.322Z,23.95
2018-09-01T17:51:12.928Z,23.53
2018-09-01T17:54:37.690Z,23.40
2018-09-01T17:58:02.164Z,22.96
2018-09-01T18:01:28.384Z,22.54
2018-09-01T18:04:52.878Z,22.18
2018-09-01T18:08:18.294Z,21.98
2018-09-01T18:11:43.193Z,21.88
2018-09-01T18:15:10.038Z,21.70
2018-09-01T18:18:34.964Z,21.46
2018-09-01T18:22:00.124Z,21.26
2018-09-01T18:25:24.538Z,21.18
2018-09-01T18:28:49.435Z,21.02
2018-09-01T18:32:14.149Z,20.92
2018-09-01T18:35:38.878Z,20.72
2018-09-01T18:39:04.297Z,20.58
2018-09-01T18:42:28.801Z,20.34
2018-09-01T18:45:53.994Z,20.21
2018-09-01T18:49:18.935Z,20.12
2018-09-01T18:52:43.717Z,20.23
2018-09-01T18:56:08.186Z,20.20
2018-09-01T18:59:33.204Z,20.11
2018-09-01T19:02:57.853Z,20.06
2018-09-01T19:06:23.136Z,19.82
2018-09-01T19:09:47.815Z,19.66
2018-09-01T19:13:13.555Z,19.66
2018-09-01T19:16:38.855Z,19.58
2018-09-01T19:20:03.561Z,19.52
2018-09-01T19:23:28.794Z,19.52
2018-09-01T19:26:53.633Z,19.44
2018-09-01T19:30:18.102Z,19.28
2018-09-01T19:33:42.601Z,19.27
2018-09-01T19:37:07.034Z,19.23
2018-09-01T19:40:31.662Z,19.08
2018-09-01T19:43:56.119Z,18.99
2018-09-01T19:47:20.537Z,18.95
2018-09-01T19:50:44.989Z,18.85
2018-09-01T19:54:09.579Z,18.78
2018-09-01T19:57:34.080Z,18.43
2018-09-01T20:00:58.504Z,18.59
2018-09-01T20:04:23.116Z,18.34
2018-09-01T20:07:47.662Z,18.21
2018-09-01T20:11:12.320Z,18.03
2018-09-01T20:14:37.060Z,18.05
2018-09-01T20:18:02.100Z,17.94
2018-09-01T20:21:27.948Z,17.83
2018-09-01T20:24:53.115Z,17.72
2018-09-01T20:28:18.424Z,17.67
2018-09-01T20:31:42.852Z,17.46
2018-09-01T20:35:12.727Z,17.40
2018-09-01T20:38:37.806Z,17.46
2018-09-01T20:42:03.219Z,17.39
2018-09-01T20:45:27.880Z,17.29
2018-09-01T20:48:53.647Z,17.24
2018-09-01T20:52:18.352Z,17.18
2018-09-01T20:55:42.991Z,17.15
2018-09-01T20:59:07.609Z,17.15
2018-09-01T21:02:32.080Z,17.21
2018-09-01T21:05:56.611Z,17.12
2018-09-01T21:09:21.239Z,17.07
2018-09-01T21:12:45.859Z,16.99
2018-09-01T21:16:10.387Z,16.94
2018-09-01T21:19:34.847Z,16.85
2018-09-01T21:22:59.584Z,16.63
2018-09-01T21:26:24.393Z,16.72
2018-09-01T21:29:49.043Z,16.67
2018-09-01T21:33:13.499Z,16.61
2018-09-01T21:36:38.132Z,16.60
2018-09-01T21:40:02.635Z,16.61
2018-09-01T21:43:27.447Z,16.57
2018-09-01T21:46:52.021Z,16.58
2018-09-01T21:50:16.578Z,16.60
2018-09-01T21:53:41.127Z,16.67
2018-09-01T21:57:06.126Z,16.84
2018-09-01T22:00:30.826Z,16.84
2018-09-01T22:03:55.271Z,16.79
2018-09-01T22:07:21.408Z,16.85
2018-09-01T22:10:45.807Z,16.83
2018-09-01T22:14:10.362Z,16.85
2018-09-01T22:17:34.851Z,16.84
2018-09-01T22:20:59.240Z,16.93
2018-09-01T22:24:23.632Z,16.88
2018-09-01T22:27:48.142Z,16.86
2018-09-01T22:31:12.582Z,16.70
2018-09-01T22:34:37.012Z,16.57
2018-09-01T22:38:01.449Z,16.53
2018-09-01T22:41:25.876Z,16.54
2018-09-01T22:44:50.322Z,16.45
2018-09-01T22:48:14.699Z,16.53
2018-09-01T22:51:39.142Z,16.49
2018-09-01T22:55:03.547Z,16.48
2018-09-01T22:58:27.968Z,16.44
2018-09-01T23:01:52.398Z,16.61
2018-09-01T23:05:16.793Z,16.60
2018-09-01T23:08:41.180Z,16.54
2018-09-01T23:12:05.585Z,16.67
2018-09-01T23:15:30.143Z,16.57
2018-09-01T23:18:54.567Z,16.63
2018-09-01T23:22:18.957Z,16.65
2018-09-01T23:25:43.351Z,16.87
2018-09-01T23:29:07.781Z,16.93
2018-09-01T23:32:32.215Z,16.87
2018-09-01T23:35:56.635Z,16.89
2018-09-01T23:39:21.104Z,16.92
2018-09-01T23:42:45.527Z,16.91
2018-09-01T23:46:10.041Z,16.88
2018-09-01T23:49:34.454Z,16.88
2018-09-01T23:52:58.887Z,16.76
2018-09-01T23:56:23.280Z,16.63
2018-09-01T23:59:47.726Z,16.75
